Time;durP1;ratioP1;P1;durP2;ratioP2;P2;SDS_P1;SDS_P2;PMS_P1;PMS_P2;Temp;Humidity;BMP_temperature;BMP_pressure;BME280_temperature;BME280_humidity;BME280_pressure;Samples;Min_cycle;Max_cycle;Signal;HPM_P1;HPM_P2
2022/12/05 00:00:27;;;;;;;30.67;21.20;;;;;;;;;;5039131;28;20042;-70
2022/12/05 00:02:53;;;;;;;32.13;21.77;;;;;;;;;;5048133;28;20041;-69
2022/12/05 00:05:19;;;;;;;36.03;22.13;;;;;;;;;;5045254;28;20049;-69
2022/12/05 00:07:45;;;;;;;37.40;21.77;;;;;;;;;;5043999;28;20052;-69
2022/12/05 00:10:11;;;;;;;34.22;20.58;;;;;;;;;;5046316;28;20047;-69
2022/12/05 00:12:37;;;;;;;32.50;20.55;;;;;;;;;;5047636;28;20040;-69
2022/12/05 00:15:03;;;;;;;31.17;19.95;;;;;;;;;;5050336;28;20044;-69
2022/12/05 00:17:31;;;;;;;31.45;20.67;;;;;;;;;;5040121;28;20053;-70
2022/12/05 00:19:57;;;;;;;31.48;19.50;;;;;;;;;;5042009;28;20057;-70
2022/12/05 00:22:23;;;;;;;30.38;20.48;;;;;;;;;;5044548;28;20048;-70
2022/12/05 00:24:49;;;;;;;29.33;18.95;;;;;;;;;;5044481;28;20069;-70
2022/12/05 00:27:15;;;;;;;31.63;21.05;;;;;;;;;;5042504;28;20041;-70
2022/12/05 00:29:41;;;;;;;28.05;18.90;;;;;;;;;;5046798;28;20131;-70
2022/12/05 00:32:07;;;;;;;32.55;19.85;;;;;;;;;;5048526;28;20048;-69
2022/12/05 00:34:33;;;;;;;29.33;19.60;;;;;;;;;;5041731;28;20033;-70
2022/12/05 00:36:59;;;;;;;30.48;20.45;;;;;;;;;;5044839;28;20051;-70
2022/12/05 00:39:25;;;;;;;31.98;19.05;;;;;;;;;;5029246;28;20057;-71
2022/12/05 00:41:51;;;;;;;29.50;19.58;;;;;;;;;;5044271;28;20053;-71
2022/12/05 00:44:17;;;;;;;30.13;19.95;;;;;;;;;;5045402;28;20033;-70
2022/12/05 00:46:43;;;;;;;29.67;20.48;;;;;;;;;;5024336;28;20427;-72
2022/12/05 00:49:10;;;;;;;31.45;20.95;;;;;;;;;;5049404;28;20049;-69
2022/12/05 00:51:37;;;;;;;30.63;21.30;;;;;;;;;;5048245;28;20049;-71
2022/12/05 00:54:05;;;;;;;32.17;20.30;;;;;;;;;;5047712;28;20041;-72
2022/12/05 00:56:31;;;;;;;32.95;20.48;;;;;;;;;;5047135;28;20511;-72
2022/12/05 00:58:58;;;;;;;33.28;21.23;;;;;;;;;;5042022;28;20060;-69
2022/12/05 01:01:31;;;;;;;32.72;21.35;;;;;;;;;;5044934;28;20396;-71
2022/12/05 01:03:57;;;;;;;34.10;22.10;;;;;;;;;;5045113;28;20049;-69
2022/12/05 01:06:24;;;;;;;35.42;22.98;;;;;;;;;;5044933;28;20037;-69
2022/12/05 01:08:50;;;;;;;36.05;21.95;;;;;;;;;;5050377;28;20132;-69
2022/12/05 01:11:18;;;;;;;35.58;22.50;;;;;;;;;;5023071;28;20041;-69
2022/12/05 01:13:44;;;;;;;35.83;22.85;;;;;;;;;;5031414;28;20131;-69
2022/12/05 01:16:18;;;;;;;37.88;24.17;;;;;;;;;;5049793;28;20068;-73
2022/12/05 01:18:44;;;;;;;37.30;22.63;;;;;;;;;;5041473;28;20052;-69
2022/12/05 01:21:10;;;;;;;38.25;23.48;;;;;;;;;;5046110;28;20559;-72
2022/12/05 01:23:36;;;;;;;38.50;23.80;;;;;;;;;;5047521;28;20064;-69
2022/12/05 01:26:05;;;;;;;36.60;23.80;;;;;;;;;;5021881;28;20152;-69
2022/12/05 01:28:32;;;;;;;34.60;22.65;;;;;;;;;;5044663;28;20048;-69
2022/12/05 01:30:58;;;;;;;35.67;22.92;;;;;;;;;;5041850;28;20591;-70
2022/12/05 01:33:24;;;;;;;38.38;24.83;;;;;;;;;;5044702;28;20128;-69
2022/12/05 01:35:50;;;;;;;44.65;25.33;;;;;;;;;;5045989;28;20045;-69
2022/12/05 01:38:16;;;;;;;39.35;24.45;;;;;;;;;;5045825;28;20518;-69
2022/12/05 01:40:42;;;;;;;40.22;24.88;;;;;;;;;;5048111;28;20373;-70
2022/12/05 01:43:17;;;;;;;37.30;24.13;;;;;;;;;;5050100;28;20049;-70
2022/12/05 01:45:45;;;;;;;38.78;23.92;;;;;;;;;;5047916;28;20399;-71
2022/12/05 01:48:14;;;;;;;40.80;25.10;;;;;;;;;;5049248;28;20127;-70
2022/12/05 01:50:40;;;;;;;42.78;25.90;;;;;;;;;;5052016;28;20051;-70
2022/12/05 01:53:07;;;;;;;44.40;25.92;;;;;;;;;;5031474;28;20052;-70
2022/12/05 01:55:33;;;;;;;42.65;26.13;;;;;;;;;;5032068;28;20132;-71
2022/12/05 01:58:00;;;;;;;43.17;26.67;;;;;;;;;;5039145;28;20053;-71
2022/12/05 02:00:26;;;;;;;43.20;26.58;;;;;;;;;;5053694;28;20040;-71
2022/12/05 02:02:55;;;;;;;44.58;25.33;;;;;;;;;;5033602;28;20136;-71
2022/12/05 02:05:23;;;;;;;46.97;27.65;;;;;;;;;;5042044;28;20132;-71
2022/12/05 02:07:49;;;;;;;41.92;27.05;;;;;;;;;;5051487;28;20435;-71
2022/12/05 02:10:15;;;;;;;47.30;27.85;;;;;;;;;;5034938;28;20395;-72
2022/12/05 02:12:43;;;;;;;44.97;27.15;;;;;;;;;;5046037;28;20032;-71
2022/12/05 02:15:19;;;;;;;49.65;28.35;;;;;;;;;;5030765;28;20045;-71
2022/12/05 02:17:53;;;;;;;45.72;26.70;;;;;;;;;;5042429;28;20494;-70
2022/12/05 02:20:31;;;;;;;49.60;28.02;;;;;;;;;;5041432;28;20043;-70
2022/12/05 02:23:16;;;;;;;46.40;27.33;;;;;;;;;;5049825;28;20049;-70
2022/12/05 02:25:45;;;;;;;54.72;28.42;;;;;;;;;;5048217;28;20052;-70
2022/12/05 02:28:26;;;;;;;51.63;29.85;;;;;;;;;;5035839;28;20151;-70
2022/12/05 02:30:57;;;;;;;53.22;29.90;;;;;;;;;;5051848;28;20505;-70
2022/12/05 02:33:34;;;;;;;57.10;29.80;;;;;;;;;;5050208;28;20721;-70
2022/12/05 02:36:12;;;;;;;59.95;29.45;;;;;;;;;;5044279;28;20037;-70
2022/12/05 02:38:50;;;;;;;52.17;29.48;;;;;;;;;;5051405;28;20045;-70
2022/12/05 02:41:22;;;;;;;54.20;30.08;;;;;;;;;;5048340;28;20530;-70
2022/12/05 02:43:57;;;;;;;59.60;30.33;;;;;;;;;;5043691;28;20385;-70
2022/12/05 02:46:24;;;;;;;64.27;31.07;;;;;;;;;;5046768;28;20048;-72
2022/12/05 02:48:52;;;;;;;63.15;31.48;;;;;;;;;;5048597;28;20128;-72
2022/12/05 02:51:20;;;;;;;60.45;31.65;;;;;;;;;;5035842;28;20049;-71
2022/12/05 02:53:47;;;;;;;62.28;31.10;;;;;;;;;;5033031;28;20042;-70
2022/12/05 02:56:14;;;;;;;62.67;31.75;;;;;;;;;;5045478;28;20443;-70
2022/12/05 02:58:43;;;;;;;63.78;32.60;;;;;;;;;;5049249;28;20060;-70
2022/12/05 03:01:10;;;;;;;66.53;33.15;;;;;;;;;;5046158;28;20047;-70
2022/12/05 03:03:36;;;;;;;64.68;31.85;;;;;;;;;;5045951;28;20131;-72
2022/12/05 03:06:02;;;;;;;69.70;32.88;;;;;;;;;;5049976;28;20049;-70
2022/12/05 03:08:34;;;;;;;65.90;31.85;;;;;;;;;;5032086;28;20458;-71
2022/12/05 03:11:01;;;;;;;66.47;32.78;;;;;;;;;;5045838;28;20052;-72
2022/12/05 03:13:31;;;;;;;63.60;32.45;;;;;;;;;;5048289;28;20037;-72
2022/12/05 03:15:59;;;;;;;66.57;32.72;;;;;;;;;;5037005;28;20461;-72
2022/12/05 03:18:38;;;;;;;68.30;32.47;;;;;;;;;;5036350;28;20072;-72
2022/12/05 03:21:17;;;;;;;69.97;33.92;;;;;;;;;;5047507;28;20102;-71
2022/12/05 03:23:47;;;;;;;68.93;33.45;;;;;;;;;;5043123;28;20050;-71
2022/12/05 03:26:13;;;;;;;67.78;32.10;;;;;;;;;;5044618;28;20052;-72
2022/12/05 03:28:50;;;;;;;68.07;32.60;;;;;;;;;;5037998;28;20041;-72
2022/12/05 03:31:20;;;;;;;68.80;32.00;;;;;;;;;;5042682;28;20037;-72
2022/12/05 03:33:49;;;;;;;64.75;32.88;;;;;;;;;;5047075;28;20049;-72
2022/12/05 03:36:17;;;;;;;66.97;33.38;;;;;;;;;;5049993;28;20044;-70
2022/12/05 03:38:50;;;;;;;66.30;31.73;;;;;;;;;;5047805;28;20457;-72
2022/12/05 03:41:22;;;;;;;63.70;31.33;;;;;;;;;;5028642;28;20045;-72
2022/12/05 03:44:06;;;;;;;64.25;31.83;;;;;;;;;;5045626;28;20037;-72
2022/12/05 03:46:48;;;;;;;61.90;30.58;;;;;;;;;;5042336;28;20143;-70
2022/12/05 03:49:21;;;;;;;63.65;31.58;;;;;;;;;;5025255;28;20042;-70
2022/12/05 03:52:08;;;;;;;56.90;29.80;;;;;;;;;;5047595;28;20128;-70
2022/12/05 03:54:37;;;;;;;59.55;28.98;;;;;;;;;;5046549;28;20086;-70
2022/12/05 03:57:23;;;;;;;57.72;29.25;;;;;;;;;;5047637;28;20523;-69
2022/12/05 03:59:58;;;;;;;56.08;30.27;;;;;;;;;;5045309;28;20045;-69
2022/12/05 04:02:46;;;;;;;53.10;28.08;;;;;;;;;;5044989;28;20045;-70
2022/12/05 04:05:19;;;;;;;54.17;28.35;;;;;;;;;;5048578;28;20946;-73
2022/12/05 04:07:48;;;;;;;52.47;27.08;;;;;;;;;;5039773;28;20431;-71
2022/12/05 04:10:17;;;;;;;52.65;26.55;;;;;;;;;;5047486;28;20072;-70
2022/12/05 04:12:44;;;;;;;48.63;25.65;;;;;;;;;;5041945;28;20124;-70
2022/12/05 04:15:13;;;;;;;47.72;24.98;;;;;;;;;;5042123;28;20475;-70
2022/12/05 04:17:45;;;;;;;46.42;24.65;;;;;;;;;;5036538;28;20069;-69
2022/12/05 04:22:59;;;;;;;44.97;23.10;;;;;;;;;;5041463;28;20069;-70
2022/12/05 04:25:33;;;;;;;40.88;22.20;;;;;;;;;;5038764;28;20049;-70
2022/12/05 04:27:59;;;;;;;45.42;24.00;;;;;;;;;;5048413;28;20040;-70
2022/12/05 04:30:27;;;;;;;41.42;23.40;;;;;;;;;;5049124;28;20052;-69
2022/12/05 04:33:05;;;;;;;38.17;22.23;;;;;;;;;;5045993;28;20368;-70
2022/12/05 04:35:35;;;;;;;37.20;22.13;;;;;;;;;;5043111;28;20095;-70
2022/12/05 04:38:08;;;;;;;38.70;21.00;;;;;;;;;;5048638;28;20091;-70
2022/12/05 04:40:39;;;;;;;37.25;21.30;;;;;;;;;;5047523;28;20047;-70
2022/12/05 04:43:06;;;;;;;36.97;22.17;;;;;;;;;;5045706;28;20086;-69
2022/12/05 04:45:33;;;;;;;34.35;21.70;;;;;;;;;;5047854;28;20074;-70
2022/12/05 04:48:01;;;;;;;30.42;20.33;;;;;;;;;;5048700;28;20144;-71
2022/12/05 04:50:29;;;;;;;34.05;21.13;;;;;;;;;;5038878;28;20372;-69
2022/12/05 04:52:57;;;;;;;32.88;21.15;;;;;;;;;;5042277;28;20044;-69
2022/12/05 04:55:28;;;;;;;30.98;19.98;;;;;;;;;;5048809;28;20057;-71
2022/12/05 04:57:54;;;;;;;31.02;19.23;;;;;;;;;;5045733;28;20523;-70
2022/12/05 05:00:20;;;;;;;31.95;19.50;;;;;;;;;;5037470;28;20049;-70
2022/12/05 05:02:49;;;;;;;29.48;19.95;;;;;;;;;;5048708;28;20045;-70
2022/12/05 05:05:17;;;;;;;27.90;19.83;;;;;;;;;;5040237;28;20052;-70
2022/12/05 05:07:44;;;;;;;31.50;20.25;;;;;;;;;;5048691;28;20063;-69
2022/12/05 05:10:12;;;;;;;30.13;19.52;;;;;;;;;;5050751;28;20048;-71
2022/12/05 05:12:38;;;;;;;29.40;20.10;;;;;;;;;;5046663;28;20151;-70
2022/12/05 05:15:04;;;;;;;30.30;19.45;;;;;;;;;;5047724;28;20053;-69
2022/12/05 05:17:30;;;;;;;30.08;19.08;;;;;;;;;;5038394;28;20050;-71
2022/12/05 05:20:22;;;;;;;26.77;18.73;;;;;;;;;;5052741;28;20463;-71
2022/12/05 05:22:42;;;;;;;27.63;18.70;;;;;;;;;;5041118;28;20606;-72
2022/12/05 05:25:08;;;;;;;26.55;17.73;;;;;;;;;;5036299;28;20045;-72
2022/12/05 05:27:34;;;;;;;26.02;17.85;;;;;;;;;;5045296;28;20128;-72
2022/12/05 05:30:00;;;;;;;26.08;18.02;;;;;;;;;;5049172;28;20041;-72
2022/12/05 05:32:26;;;;;;;24.40;16.83;;;;;;;;;;5047575;28;20447;-69
2022/12/05 05:34:52;;;;;;;21.02;15.70;;;;;;;;;;5052042;28;20040;-70
2022/12/05 05:37:18;;;;;;;21.35;15.38;;;;;;;;;;5050159;28;20041;-70
2022/12/05 05:39:44;;;;;;;22.25;15.52;;;;;;;;;;5049850;28;20053;-70
2022/12/05 05:42:10;;;;;;;20.58;14.60;;;;;;;;;;5045953;28;20079;-70
2022/12/05 05:44:36;;;;;;;17.08;13.50;;;;;;;;;;5042310;28;20064;-69
2022/12/05 05:47:02;;;;;;;19.00;13.00;;;;;;;;;;5040351;28;20045;-69
2022/12/05 05:49:28;;;;;;;18.60;13.13;;;;;;;;;;5052422;28;20049;-72
2022/12/05 05:51:54;;;;;;;14.63;11.02;;;;;;;;;;5044606;28;20037;-69
2022/12/05 05:54:20;;;;;;;13.18;10.88;;;;;;;;;;5047892;28;20037;-72
2022/12/05 05:56:46;;;;;;;14.98;10.57;;;;;;;;;;5053200;28;20090;-71
2022/12/05 05:59:12;;;;;;;12.20;10.27;;;;;;;;;;5039339;28;20155;-72
2022/12/05 06:01:38;;;;;;;11.20;9.25;;;;;;;;;;5045253;28;20040;-71
2022/12/05 06:04:04;;;;;;;12.07;9.70;;;;;;;;;;5050138;28;20041;-72
2022/12/05 06:06:30;;;;;;;11.73;9.75;;;;;;;;;;5050717;28;20061;-72
2022/12/05 06:08:56;;;;;;;11.80;9.68;;;;;;;;;;5052084;28;20096;-71
2022/12/05 06:11:23;;;;;;;11.90;10.07;;;;;;;;;;5048938;28;20045;-71
2022/12/05 06:13:49;;;;;;;12.43;10.48;;;;;;;;;;5024679;28;20045;-72
2022/12/05 06:16:16;;;;;;;15.13;10.73;;;;;;;;;;5039012;28;20051;-71
2022/12/05 06:18:42;;;;;;;13.85;10.75;;;;;;;;;;5044403;28;20631;-72
2022/12/05 06:21:09;;;;;;;11.52;10.18;;;;;;;;;;5049512;28;20049;-71
2022/12/05 06:23:36;;;;;;;12.32;10.27;;;;;;;;;;5046567;28;20569;-70
2022/12/05 06:26:02;;;;;;;10.60;9.40;;;;;;;;;;5041982;28;20103;-71
2022/12/05 06:28:28;;;;;;;10.60;9.05;;;;;;;;;;5045277;28;20451;-72
2022/12/05 06:30:54;;;;;;;11.48;9.98;;;;;;;;;;5042992;28;20068;-72
2022/12/05 06:33:20;;;;;;;12.02;9.45;;;;;;;;;;5044762;28;20046;-72
2022/12/05 06:35:46;;;;;;;11.40;10.07;;;;;;;;;;5043763;28;20045;-72
2022/12/05 06:38:12;;;;;;;11.85;10.38;;;;;;;;;;5049968;28;20487;-70
2022/12/05 06:40:42;;;;;;;12.70;9.65;;;;;;;;;;5050738;28;20522;-70
2022/12/05 06:43:08;;;;;;;12.93;10.57;;;;;;;;;;5047161;28;20067;-69
2022/12/05 06:45:36;;;;;;;12.27;10.70;;;;;;;;;;5050827;28;20040;-70
2022/12/05 06:48:03;;;;;;;11.38;10.18;;;;;;;;;;5047390;28;20632;-72
2022/12/05 06:50:29;;;;;;;11.23;9.93;;;;;;;;;;5041033;28;20124;-72
2022/12/05 06:52:55;;;;;;;12.43;10.60;;;;;;;;;;5043381;28;20175;-70
2022/12/05 06:55:21;;;;;;;13.75;11.25;;;;;;;;;;5043431;28;20037;-70
2022/12/05 06:57:47;;;;;;;13.30;10.48;;;;;;;;;;5049067;28;20052;-70
2022/12/05 07:02:58;;;;;;;13.05;10.27;;;;;;;;;;5055945;28;20800;-70
2022/12/05 07:05:24;;;;;;;11.98;10.52;;;;;;;;;;5044921;28;20573;-72
2022/12/05 07:07:50;;;;;;;12.90;10.55;;;;;;;;;;5045964;28;20195;-72
2022/12/05 07:10:16;;;;;;;11.98;9.82;;;;;;;;;;5034494;28;20049;-72
2022/12/05 07:12:42;;;;;;;11.68;9.32;;;;;;;;;;5028131;28;20076;-72
2022/12/05 07:15:08;;;;;;;9.90;8.60;;;;;;;;;;5027472;28;20056;-73
2022/12/05 07:17:36;;;;;;;10.35;7.82;;;;;;;;;;5041206;28;20626;-70
2022/12/05 07:20:02;;;;;;;9.40;7.10;;;;;;;;;;5044472;28;20182;-71
2022/12/05 07:22:28;;;;;;;7.78;6.90;;;;;;;;;;5040693;28;20045;-72
2022/12/05 07:24:54;;;;;;;14.85;7.35;;;;;;;;;;5048924;28;20048;-73
2022/12/05 07:27:20;;;;;;;8.00;6.35;;;;;;;;;;5040090;28;20055;-72
2022/12/05 07:29:46;;;;;;;8.90;6.40;;;;;;;;;;5050187;28;20044;-71
2022/12/05 07:32:12;;;;;;;9.07;6.90;;;;;;;;;;5037634;28;20423;-70
2022/12/05 07:34:38;;;;;;;7.95;6.57;;;;;;;;;;5049172;28;20063;-71
2022/12/05 07:37:05;;;;;;;8.65;6.47;;;;;;;;;;5047925;28;20045;-71
2022/12/05 07:39:31;;;;;;;9.52;6.22;;;;;;;;;;5053121;28;20040;-70
2022/12/05 07:41:56;;;;;;;10.57;6.85;;;;;;;;;;5035055;28;20128;-70
2022/12/05 07:44:22;;;;;;;9.30;7.13;;;;;;;;;;5026321;28;20120;-70
2022/12/05 07:46:49;;;;;;;10.38;7.60;;;;;;;;;;5049527;28;20048;-71
2022/12/05 07:49:15;;;;;;;10.95;7.70;;;;;;;;;;5051799;28;20076;-71
2022/12/05 07:51:41;;;;;;;11.27;8.40;;;;;;;;;;5044206;28;20104;-71
2022/12/05 07:54:07;;;;;;;11.35;8.13;;;;;;;;;;5044098;28;20131;-69
2022/12/05 07:56:33;;;;;;;12.52;8.45;;;;;;;;;;5047187;28;20140;-69
2022/12/05 07:58:59;;;;;;;12.93;8.73;;;;;;;;;;5032271;28;20046;-68
2022/12/05 08:01:26;;;;;;;13.18;9.05;;;;;;;;;;5037143;28;20622;-71
2022/12/05 08:03:53;;;;;;;14.07;8.77;;;;;;;;;;5047220;28;20095;-72
2022/12/05 08:06:20;;;;;;;11.45;8.57;;;;;;;;;;5047518;28;20049;-71
2022/12/05 08:08:48;;;;;;;15.30;8.75;;;;;;;;;;5048616;28;20080;-72
2022/12/05 08:11:16;;;;;;;12.30;8.75;;;;;;;;;;5040068;28;20694;-71
2022/12/05 08:13:42;;;;;;;15.35;9.45;;;;;;;;;;5025504;28;20088;-71
2022/12/05 08:16:13;;;;;;;14.00;9.70;;;;;;;;;;5046018;28;20049;-72
2022/12/05 08:18:39;;;;;;;12.52;8.95;;;;;;;;;;5045595;28;20487;-69
2022/12/05 08:21:06;;;;;;;14.60;10.07;;;;;;;;;;5045536;28;20045;-68
2022/12/05 08:23:33;;;;;;;14.27;9.20;;;;;;;;;;5044286;28;20041;-69
2022/12/05 08:26:03;;;;;;;11.77;8.80;;;;;;;;;;5041616;28;20103;-70
2022/12/05 08:28:29;;;;;;;13.45;9.07;;;;;;;;;;5040064;28;20408;-71
2022/12/05 08:30:55;;;;;;;14.52;9.15;;;;;;;;;;5045651;28;20045;-71
2022/12/05 08:33:21;;;;;;;16.98;9.90;;;;;;;;;;5039353;28;20126;-71
2022/12/05 08:35:47;;;;;;;13.00;9.20;;;;;;;;;;5045600;28;20045;-70
2022/12/05 08:38:13;;;;;;;13.35;8.80;;;;;;;;;;5044375;28;20045;-71
2022/12/05 08:40:39;;;;;;;14.05;9.43;;;;;;;;;;5047071;28;20090;-72
2022/12/05 08:43:05;;;;;;;14.73;10.00;;;;;;;;;;5042912;28;20053;-70
2022/12/05 08:45:31;;;;;;;13.60;8.85;;;;;;;;;;5044082;28;20126;-69
2022/12/05 08:47:57;;;;;;;13.65;9.40;;;;;;;;;;5047168;28;20060;-71
2022/12/05 08:50:23;;;;;;;15.93;9.30;;;;;;;;;;5046310;28;20380;-70
2022/12/05 08:52:49;;;;;;;14.60;9.07;;;;;;;;;;5044896;28;20143;-70
2022/12/05 08:55:15;;;;;;;14.63;9.25;;;;;;;;;;5043820;28;20080;-70
2022/12/05 08:57:41;;;;;;;14.95;8.82;;;;;;;;;;5042772;28;20091;-71
2022/12/05 09:00:07;;;;;;;15.82;8.88;;;;;;;;;;5043556;28;20049;-71
2022/12/05 09:02:33;;;;;;;14.73;9.35;;;;;;;;;;5045922;28;20131;-70
2022/12/05 09:04:59;;;;;;;14.32;9.02;;;;;;;;;;5047752;28;20127;-71
2022/12/05 09:07:25;;;;;;;13.18;9.00;;;;;;;;;;5045616;28;20037;-71
2022/12/05 09:09:51;;;;;;;14.98;9.68;;;;;;;;;;5043969;28;20420;-70
2022/12/05 09:12:17;;;;;;;15.55;9.25;;;;;;;;;;5044942;28;20041;-71
2022/12/05 09:14:43;;;;;;;15.38;9.05;;;;;;;;;;5038995;28;20195;-71
2022/12/05 09:17:09;;;;;;;13.95;9.40;;;;;;;;;;5039452;28;20045;-71
2022/12/05 09:19:35;;;;;;;18.52;9.32;;;;;;;;;;5043861;28;20094;-72
2022/12/05 09:22:01;;;;;;;15.18;9.38;;;;;;;;;;5039634;28;20057;-69
2022/12/05 09:24:27;;;;;;;17.25;8.88;;;;;;;;;;5041573;28;20041;-69
2022/12/05 09:26:53;;;;;;;18.92;10.32;;;;;;;;;;5039999;28;20103;-69
2022/12/05 09:29:19;;;;;;;17.92;9.88;;;;;;;;;;5044545;28;20073;-69
2022/12/05 09:31:46;;;;;;;15.50;9.63;;;;;;;;;;5047481;28;20049;-69
2022/12/05 09:34:14;;;;;;;17.52;9.93;;;;;;;;;;5045219;28;20049;-70
2022/12/05 09:36:40;;;;;;;17.63;10.07;;;;;;;;;;5044326;28;20048;-69
2022/12/05 09:39:07;;;;;;;14.70;9.63;;;;;;;;;;5041555;28;20037;-70
2022/12/05 09:42:03;;;;;;;16.63;9.98;;;;;;;;;;5044573;28;20458;-71
2022/12/05 09:44:48;;;;;;;14.25;9.68;;;;;;;;;;5040702;28;20091;-73
2022/12/05 09:47:35;;;;;;;15.82;9.23;;;;;;;;;;5022867;28;20515;-70
2022/12/05 09:50:16;;;;;;;58.95;14.52;;;;;;;;;;5042281;28;20099;-72
2022/12/05 09:52:48;;;;;;;39.67;15.25;;;;;;;;;;5041900;28;20041;-72
2022/12/05 09:55:15;;;;;;;22.58;10.98;;;;;;;;;;5042258;28;20037;-72
2022/12/05 09:57:44;;;;;;;16.58;9.25;;;;;;;;;;5046311;28;20060;-72
2022/12/05 10:00:11;;;;;;;18.55;9.88;;;;;;;;;;5029214;28;20167;-72
2022/12/05 10:02:44;;;;;;;15.25;9.10;;;;;;;;;;5031644;28;20053;-73
2022/12/05 10:05:19;;;;;;;14.68;9.18;;;;;;;;;;5047930;28;20091;-72
2022/12/05 10:08:04;;;;;;;14.90;9.25;;;;;;;;;;5044847;28;21755;-73
2022/12/05 10:10:44;;;;;;;16.27;9.88;;;;;;;;;;5046769;28;20037;-72
2022/12/05 10:13:29;;;;;;;18.00;9.23;;;;;;;;;;5045726;28;20044;-70
2022/12/05 10:15:57;;;;;;;16.40;8.88;;;;;;;;;;5044253;28;20033;-69
2022/12/05 10:18:29;;;;;;;18.52;9.38;;;;;;;;;;5047999;28;20049;-70
2022/12/05 10:20:55;;;;;;;13.57;9.52;;;;;;;;;;5046564;28;20049;-69
2022/12/05 10:23:24;;;;;;;16.17;8.75;;;;;;;;;;5042893;28;20079;-69
2022/12/05 10:25:55;;;;;;;14.50;10.20;;;;;;;;;;5046982;28;20041;-72
2022/12/05 10:28:42;;;;;;;16.05;10.00;;;;;;;;;;5045330;28;20041;-69
2022/12/05 10:31:10;;;;;;;13.95;8.38;;;;;;;;;;5047028;28;20048;-72
2022/12/05 10:33:46;;;;;;;15.38;9.38;;;;;;;;;;5044624;28;20069;-71
2022/12/05 10:36:12;;;;;;;16.20;8.77;;;;;;;;;;5045697;28;20091;-69
2022/12/05 10:38:39;;;;;;;15.93;10.38;;;;;;;;;;5045573;28;20053;-71
2022/12/05 10:41:07;;;;;;;19.40;12.00;;;;;;;;;;5045827;28;20053;-70
2022/12/05 10:43:34;;;;;;;19.30;11.23;;;;;;;;;;5047098;28;20056;-70
2022/12/05 10:46:00;;;;;;;18.67;13.05;;;;;;;;;;5047186;28;20594;-70
2022/12/05 10:48:26;;;;;;;12.45;8.85;;;;;;;;;;5042270;28;20057;-72
2022/12/05 10:50:54;;;;;;;14.35;9.60;;;;;;;;;;5045285;28;20118;-72
2022/12/05 10:53:25;;;;;;;13.82;9.18;;;;;;;;;;5020796;28;20072;-71
2022/12/05 10:55:51;;;;;;;16.40;9.25;;;;;;;;;;5045465;28;20759;-70
2022/12/05 10:58:24;;;;;;;13.90;8.73;;;;;;;;;;5030722;28;20053;-70
2022/12/05 11:01:16;;;;;;;14.32;9.10;;;;;;;;;;5040159;28;20533;-71
2022/12/05 11:03:43;;;;;;;15.57;8.88;;;;;;;;;;5036544;28;20127;-71
2022/12/05 11:06:23;;;;;;;13.90;8.95;;;;;;;;;;5039074;28;20128;-72
2022/12/05 11:08:53;;;;;;;15.43;9.63;;;;;;;;;;5038800;28;20045;-70
2022/12/05 11:11:19;;;;;;;17.65;9.48;;;;;;;;;;5036657;28;20656;-71
2022/12/05 11:13:54;;;;;;;15.27;9.45;;;;;;;;;;5040852;28;20076;-72
2022/12/05 11:16:25;;;;;;;15.27;9.18;;;;;;;;;;5037189;28;20067;-69
2022/12/05 11:18:52;;;;;;;17.58;10.40;;;;;;;;;;5037489;28;20551;-72
2022/12/05 11:21:18;;;;;;;16.08;9.50;;;;;;;;;;5043549;28;20436;-72
2022/12/05 11:23:45;;;;;;;17.60;10.55;;;;;;;;;;5027165;28;21497;-72
2022/12/05 11:26:34;;;;;;;20.15;13.23;;;;;;;;;;5042941;28;20040;-72
2022/12/05 11:29:00;;;;;;;24.50;16.38;;;;;;;;;;5036154;28;20044;-70
2022/12/05 11:31:28;;;;;;;19.77;12.40;;;;;;;;;;5038532;28;20048;-70
2022/12/05 11:34:01;;;;;;;15.13;10.20;;;;;;;;;;5042584;28;20128;-69
2022/12/05 11:36:36;;;;;;;17.95;10.65;;;;;;;;;;5043625;28;21830;-69
2022/12/05 11:39:02;;;;;;;15.50;9.90;;;;;;;;;;5043423;28;20592;-71
2022/12/05 11:41:58;;;;;;;16.75;9.77;;;;;;;;;;5041533;28;20041;-72
2022/12/05 11:44:42;;;;;;;17.90;10.55;;;;;;;;;;5037937;28;20041;-69
2022/12/05 11:47:38;;;;;;;15.70;10.65;;;;;;;;;;5040814;28;20052;-69
2022/12/05 11:50:11;;;;;;;18.58;10.35;;;;;;;;;;4994930;28;20049;-70
2022/12/05 11:52:37;;;;;;;15.55;9.68;;;;;;;;;;5046851;28;20494;-69
2022/12/05 11:55:12;;;;;;;14.02;9.20;;;;;;;;;;5029242;28;20045;-70
2022/12/05 11:57:41;;;;;;;14.75;9.25;;;;;;;;;;5039520;28;20048;-69
2022/12/05 12:00:26;;;;;;;16.48;9.82;;;;;;;;;;5025316;28;20519;-71
2022/12/05 12:03:07;;;;;;;14.13;10.38;;;;;;;;;;5040190;28;20094;-71
2022/12/05 12:05:52;;;;;;;15.63;9.60;;;;;;;;;;5050079;28;20045;-71
2022/12/05 12:08:19;;;;;;;12.80;9.10;;;;;;;;;;5040400;28;20045;-70
2022/12/05 12:11:03;;;;;;;14.32;9.32;;;;;;;;;;5044818;28;20045;-71
2022/12/05 12:13:48;;;;;;;16.30;9.02;;;;;;;;;;5041541;28;20044;-71
2022/12/05 12:16:21;;;;;;;16.70;10.48;;;;;;;;;;5038190;28;20037;-72
2022/12/05 12:18:55;;;;;;;14.23;8.48;;;;;;;;;;5034465;28;20040;-72
2022/12/05 12:21:41;;;;;;;17.08;9.13;;;;;;;;;;5023196;28;20107;-69
2022/12/05 12:24:21;;;;;;;16.88;9.32;;;;;;;;;;5040595;28;20049;-69
2022/12/05 12:27:04;;;;;;;11.10;7.85;;;;;;;;;;5044071;28;20059;-69
2022/12/05 12:29:33;;;;;;;12.68;8.68;;;;;;;;;;5047586;28;20076;-69
2022/12/05 12:32:18;;;;;;;12.40;7.28;;;;;;;;;;5041883;28;20376;-70
2022/12/05 12:35:00;;;;;;;13.82;8.85;;;;;;;;;;5045295;28;20115;-69
2022/12/05 12:37:45;;;;;;;10.60;8.00;;;;;;;;;;5046160;28;20122;-69
2022/12/05 12:40:33;;;;;;;12.27;9.40;;;;;;;;;;5045486;28;20049;-70
2022/12/05 12:43:07;;;;;;;14.45;8.25;;;;;;;;;;5040447;28;20053;-72
2022/12/05 12:45:36;;;;;;;26.08;20.52;;;;;;;;;;5038964;28;20044;-70
2022/12/05 12:48:14;;;;;;;21.42;16.15;;;;;;;;;;5039704;28;20131;-70
2022/12/05 12:50:42;;;;;;;10.82;6.40;;;;;;;;;;5039184;28;20037;-72
2022/12/05 12:53:26;;;;;;;12.25;8.13;;;;;;;;;;5046771;28;20051;-72
2022/12/05 12:56:12;;;;;;;11.00;6.43;;;;;;;;;;5046642;28;20048;-72
2022/12/05 12:58:39;;;;;;;9.43;6.22;;;;;;;;;;5022788;28;20049;-72
2022/12/05 13:01:05;;;;;;;8.35;5.88;;;;;;;;;;5041999;28;20114;-72
2022/12/05 13:03:40;;;;;;;8.88;6.00;;;;;;;;;;5048655;28;20045;-73
2022/12/05 13:06:14;;;;;;;10.18;6.05;;;;;;;;;;5046370;28;20045;-72
2022/12/05 13:08:44;;;;;;;10.60;5.60;;;;;;;;;;5037557;28;20051;-73
2022/12/05 13:11:12;;;;;;;12.00;6.05;;;;;;;;;;5038894;28;20041;-71
2022/12/05 13:13:41;;;;;;;8.40;5.80;;;;;;;;;;5049084;28;20063;-72
2022/12/05 13:16:09;;;;;;;11.85;6.53;;;;;;;;;;5040450;28;20048;-72
2022/12/05 13:18:35;;;;;;;8.07;5.45;;;;;;;;;;5043678;28;20579;-69
2022/12/05 13:21:10;;;;;;;8.77;5.72;;;;;;;;;;5041937;28;20045;-69
2022/12/05 13:23:43;;;;;;;8.02;5.50;;;;;;;;;;5040273;28;20091;-70
2022/12/05 13:26:11;;;;;;;7.00;4.97;;;;;;;;;;5040306;28;20053;-69
2022/12/05 13:29:12;;;;;;;9.80;6.05;;;;;;;;;;5037003;28;20048;-71
2022/12/05 13:31:40;;;;;;;9.13;5.72;;;;;;;;;;5005468;28;20041;-69
2022/12/05 13:34:27;;;;;;;8.15;5.25;;;;;;;;;;5043424;28;20483;-70
2022/12/05 13:42:26;;;;;;;10.18;5.25;;;;;;;;;;5047578;28;20033;-73
2022/12/05 13:44:55;;;;;;;9.82;5.70;;;;;;;;;;5047328;28;20033;-72
2022/12/05 13:47:21;;;;;;;9.60;5.57;;;;;;;;;;5049122;28;20410;-72
2022/12/05 13:49:52;;;;;;;8.48;5.43;;;;;;;;;;5050185;28;20033;-69
2022/12/05 13:52:24;;;;;;;7.35;5.20;;;;;;;;;;5049609;28;20125;-73
2022/12/05 13:55:09;;;;;;;9.57;5.35;;;;;;;;;;5043010;28;20128;-73
2022/12/05 13:57:38;;;;;;;10.43;5.25;;;;;;;;;;5042566;28;20056;-71
2022/12/05 14:00:21;;;;;;;9.18;5.90;;;;;;;;;;5039284;28;20045;-73
2022/12/05 14:02:50;;;;;;;16.25;12.93;;;;;;;;;;5043991;28;20045;-70
2022/12/05 14:05:18;;;;;;;12.30;7.90;;;;;;;;;;5050747;28;20048;-69
2022/12/05 14:07:47;;;;;;;11.57;7.63;;;;;;;;;;5045392;28;20118;-70
2022/12/05 14:10:18;;;;;;;11.45;8.32;;;;;;;;;;5050234;28;20037;-71
2022/12/05 14:12:55;;;;;;;12.75;6.45;;;;;;;;;;5041959;28;20121;-70
2022/12/05 14:15:27;;;;;;;11.02;6.35;;;;;;;;;;5041913;28;20045;-72
2022/12/05 14:17:59;;;;;;;8.88;6.43;;;;;;;;;;5040970;28;20041;-72
2022/12/05 14:20:40;;;;;;;11.57;7.00;;;;;;;;;;5041950;28;20053;-71
2022/12/05 14:23:45;;;;;;;11.40;6.10;;;;;;;;;;5040666;28;20052;-72
2022/12/05 14:26:31;;;;;;;7.95;5.40;;;;;;;;;;5004759;28;20049;-72
2022/12/05 14:29:15;;;;;;;10.48;5.72;;;;;;;;;;5005248;28;20045;-71
2022/12/05 14:31:53;;;;;;;8.73;5.72;;;;;;;;;;5030361;28;20041;-70
2022/12/05 14:34:21;;;;;;;9.40;6.13;;;;;;;;;;5042719;28;20049;-72
2022/12/05 14:37:05;;;;;;;8.43;5.85;;;;;;;;;;5027047;28;20037;-71
2022/12/05 14:39:51;;;;;;;10.18;6.32;;;;;;;;;;5043588;28;20059;-71
2022/12/05 14:42:20;;;;;;;8.73;6.10;;;;;;;;;;5039779;28;20067;-71
2022/12/05 14:44:48;;;;;;;8.93;6.20;;;;;;;;;;5026399;28;20072;-71
2022/12/05 14:47:18;;;;;;;12.55;9.20;;;;;;;;;;5043712;28;20076;-73
2022/12/05 14:49:52;;;;;;;11.48;7.15;;;;;;;;;;5040584;28;20037;-71
2022/12/05 14:52:21;;;;;;;10.25;6.13;;;;;;;;;;5039676;28;20120;-73